createdAt,value
2019-05-03T00:01:25.427Z,11.80
2019-05-03T00:03:54.687Z,11.78
2019-05-03T00:06:24.227Z,11.64
2019-05-03T00:08:53.707Z,11.63
2019-05-03T00:11:22.924Z,11.64
2019-05-03T00:13:52.591Z,11.71
2019-05-03T00:16:27.245Z,11.70
2019-05-03T00:18:56.490Z,11.72
2019-05-03T00:21:25.547Z,11.63
2019-05-03T00:23:54.808Z,11.62
2019-05-03T00:26:24.048Z,11.58
2019-05-03T00:28:53.304Z,11.60
2019-05-03T00:31:23.385Z,11.59
2019-05-03T00:34:02.249Z,11.60
2019-05-03T00:36:42.668Z,11.57
2019-05-03T00:39:24.050Z,11.61
2019-05-03T00:41:53.592Z,11.60
2019-05-03T00:44:22.835Z,11.58
2019-05-03T00:46:53.707Z,11.58
2019-05-03T00:49:23.668Z,11.60
2019-05-03T00:51:52.895Z,11.57
2019-05-03T00:54:22.938Z,11.57
2019-05-03T00:56:56.835Z,11.56
2019-05-03T00:59:26.090Z,11.47
2019-05-03T01:01:55.315Z,11.36
2019-05-03T01:04:24.566Z,11.24
2019-05-03T01:06:55.594Z,11.27
2019-05-03T01:09:26.523Z,11.24
2019-05-03T01:11:55.740Z,11.39
2019-05-03T01:14:25.310Z,11.44
2019-05-03T01:16:55.783Z,11.49
2019-05-03T01:19:25.217Z,11.44
2019-05-03T01:21:54.457Z,11.41
2019-05-03T01:24:26.139Z,11.37
2019-05-03T01:26:56.797Z,11.46
2019-05-03T01:29:26.008Z,11.45
2019-05-03T01:31:57.166Z,11.45
2019-05-03T01:34:26.392Z,11.35
2019-05-03T01:36:55.632Z,11.29
2019-05-03T01:39:25.077Z,11.38
2019-05-03T01:41:54.865Z,11.44
2019-05-03T01:44:24.093Z,11.44
2019-05-03T01:46:54.976Z,11.43
2019-05-03T01:49:43.732Z,11.39
2019-05-03T01:52:21.901Z,11.38
2019-05-03T01:54:52.120Z,11.45
2019-05-03T01:57:22.177Z,11.51
2019-05-03T01:59:52.062Z,11.52
2019-05-03T02:02:41.960Z,11.50
2019-05-03T02:05:33.284Z,11.46
2019-05-03T02:08:02.569Z,11.43
2019-05-03T02:10:32.212Z,11.53
2019-05-03T02:13:01.769Z,11.46
2019-05-03T02:15:32.928Z,11.44
2019-05-03T02:18:02.668Z,11.50
2019-05-03T02:20:32.449Z,11.55
2019-05-03T02:23:02.762Z,11.47
2019-05-03T02:25:32.394Z,11.49
2019-05-03T02:28:02.040Z,11.41
2019-05-03T02:30:33.232Z,11.46
2019-05-03T02:33:04.033Z,11.53
2019-05-03T02:35:33.590Z,11.52
2019-05-03T02:38:03.750Z,11.49
2019-05-03T02:40:33.801Z,11.48
2019-05-03T02:43:09.707Z,11.45
2019-05-03T02:45:51.574Z,11.49
2019-05-03T02:48:30.521Z,11.45
2019-05-03T02:50:59.769Z,11.45
2019-05-03T02:53:29.013Z,11.41
2019-05-03T02:56:15.027Z,11.39
2019-05-03T02:58:40.109Z,11.41
2019-05-03T03:01:09.337Z,11.52
2019-05-03T03:03:40.572Z,11.50
2019-05-03T03:06:10.047Z,11.38
2019-05-03T03:08:39.709Z,11.30
2019-05-03T03:11:09.634Z,11.25
2019-05-03T03:13:39.596Z,11.38
2019-05-03T03:16:11.173Z,11.35
2019-05-03T03:18:41.528Z,11.36
2019-05-03T03:21:16.336Z,11.38
2019-05-03T03:24:07.317Z,11.40
2019-05-03T03:26:42.955Z,11.43
2019-05-03T03:29:16.011Z,11.32
2019-05-03T03:31:58.516Z,11.24
2019-05-03T03:34:32.067Z,11.25
2019-05-03T03:37:06.560Z,11.34
2019-05-03T03:39:36.226Z,11.43
2019-05-03T03:42:06.100Z,11.54
2019-05-03T03:44:36.587Z,11.59
2019-05-03T03:47:06.048Z,11.71
2019-05-03T03:49:37.104Z,11.71
2019-05-03T03:52:10.340Z,11.70
2019-05-03T03:54:42.155Z,11.60
2019-05-03T03:57:15.877Z,11.57
2019-05-03T03:59:45.750Z,11.63
2019-05-03T04:02:16.538Z,11.62
2019-05-03T04:04:46.974Z,11.56
2019-05-03T04:07:16.632Z,11.42
2019-05-03T04:09:46.563Z,11.38
2019-05-03T04:12:16.636Z,11.29
2019-05-03T04:14:57.946Z,11.09
2019-05-03T04:17:58.773Z,11.10
2019-05-03T04:20:35.814Z,11.02
2019-05-03T04:23:05.412Z,10.98
2019-05-03T04:25:35.907Z,10.90
2019-05-03T04:28:05.898Z,10.79
2019-05-03T04:30:37.907Z,10.69
2019-05-03T04:33:07.167Z,10.66
2019-05-03T04:35:36.858Z,10.59
2019-05-03T04:38:06.287Z,10.52
2019-05-03T04:40:36.080Z,10.52
2019-05-03T04:43:06.626Z,10.55
2019-05-03T04:45:36.604Z,10.58
2019-05-03T04:48:06.369Z,10.56
2019-05-03T04:50:36.969Z,10.56
2019-05-03T04:53:06.319Z,10.62
2019-05-03T04:55:36.523Z,10.61
2019-05-03T04:58:06.587Z,10.67
2019-05-03T05:00:39.341Z,10.73
2019-05-03T05:03:08.997Z,10.76
2019-05-03T05:05:39.831Z,10.65
2019-05-03T05:08:09.104Z,10.66
2019-05-03T05:10:41.625Z,10.78
2019-05-03T05:13:10.849Z,10.72
2019-05-03T05:15:40.479Z,10.70
2019-05-03T05:18:26.354Z,10.65
2019-05-03T05:21:15.033Z,10.68
2019-05-03T05:23:58.957Z,10.66
2019-05-03T05:26:35.552Z,10.63
2019-05-03T05:29:08.605Z,10.60
2019-05-03T05:31:37.837Z,10.61
2019-05-03T05:34:08.919Z,10.56
2019-05-03T05:36:45.255Z,10.62
2019-05-03T05:39:18.713Z,10.56
2019-05-03T05:41:47.841Z,10.57
2019-05-03T05:44:17.091Z,10.52
2019-05-03T05:47:25.529Z,10.45
2019-05-03T05:49:59.025Z,10.52
2019-05-03T05:52:28.584Z,10.55
2019-05-03T05:55:06.791Z,10.56
2019-05-03T05:57:46.402Z,10.63
2019-05-03T06:00:21.932Z,10.62
2019-05-03T06:02:51.443Z,10.70
2019-05-03T06:05:21.098Z,10.57
2019-05-03T06:08:01.316Z,10.57
2019-05-03T06:10:52.767Z,10.67
2019-05-03T06:13:29.567Z,10.72
2019-05-03T06:16:15.364Z,10.73
2019-05-03T06:19:02.298Z,10.76
2019-05-03T06:21:39.864Z,10.96
2019-05-03T06:24:17.532Z,10.94
2019-05-03T06:26:54.627Z,11.12
2019-05-03T06:29:24.771Z,11.28
2019-05-03T06:32:21.308Z,11.37
2019-05-03T06:34:50.878Z,11.43
2019-05-03T06:37:22.117Z,11.59
2019-05-03T06:39:51.483Z,11.71
2019-05-03T06:42:22.762Z,11.74
2019-05-03T06:44:51.753Z,11.84
2019-05-03T06:47:21.015Z,12.14
2019-05-03T06:49:50.313Z,12.28
2019-05-03T06:52:24.547Z,12.39
2019-05-03T06:54:50.507Z,12.31
2019-05-03T06:57:20.038Z,12.03
2019-05-03T07:00:11.000Z,11.85
2019-05-03T07:02:59.238Z,11.78
2019-05-03T07:05:48.745Z,11.45
2019-05-03T07:08:35.595Z,11.17
2019-05-03T07:11:05.619Z,11.05
2019-05-03T07:13:35.162Z,10.95
2019-05-03T07:16:04.750Z,10.89
2019-05-03T07:18:35.171Z,10.90
2019-05-03T07:21:06.456Z,10.81
2019-05-03T07:23:36.566Z,10.86
2019-05-03T07:26:05.787Z,10.97
2019-05-03T07:28:46.322Z,10.87
2019-05-03T07:31:06.570Z,11.01
2019-05-03T07:33:36.197Z,11.19
2019-05-03T07:36:07.907Z,11.21
2019-05-03T07:38:37.478Z,11.31
2019-05-03T07:41:06.798Z,11.47
2019-05-03T07:43:36.287Z,11.55
2019-05-03T07:46:06.045Z,11.62
2019-05-03T07:48:35.458Z,11.62
2019-05-03T07:51:05.485Z,11.63
2019-05-03T07:53:35.950Z,11.59
2019-05-03T07:56:14.939Z,11.46
2019-05-03T07:58:59.059Z,11.33
2019-05-03T08:01:30.502Z,11.27
2019-05-03T08:04:01.196Z,11.00
2019-05-03T08:06:30.411Z,10.88
2019-05-03T08:09:02.129Z,10.69
2019-05-03T08:11:31.649Z,10.55
2019-05-03T08:14:00.893Z,10.65
2019-05-03T08:16:30.113Z,10.77
2019-05-03T08:18:59.547Z,11.00
2019-05-03T08:21:28.797Z,11.42
2019-05-03T08:23:58.053Z,12.24
2019-05-03T08:26:29.107Z,14.80
2019-05-03T08:28:58.360Z,15.97
2019-05-03T08:31:49.762Z,16.24
2019-05-03T08:34:49.871Z,18.47
2019-05-03T08:37:45.317Z,21.09
2019-05-03T08:40:15.933Z,20.98
2019-05-03T08:42:45.193Z,19.51
2019-05-03T08:45:14.889Z,18.79
2019-05-03T08:47:45.054Z,17.31
2019-05-03T08:50:20.943Z,16.38
2019-05-03T08:52:55.517Z,15.98
2019-05-03T08:55:24.967Z,15.71
2019-05-03T08:57:55.173Z,15.72
2019-05-03T09:00:27.940Z,15.73
2019-05-03T09:02:58.671Z,16.19
2019-05-03T09:05:28.492Z,16.33
2019-05-03T09:07:57.769Z,16.68
2019-05-03T09:10:31.801Z,17.77
2019-05-03T09:13:07.775Z,19.52
2019-05-03T09:15:37.439Z,19.86
2019-05-03T09:18:06.870Z,19.42
2019-05-03T09:20:36.131Z,21.43
2019-05-03T09:23:08.423Z,24.14
2019-05-03T09:25:38.019Z,25.47
2019-05-03T09:28:07.386Z,26.14
2019-05-03T09:30:36.709Z,24.28
2019-05-03T09:33:09.059Z,21.34
2019-05-03T09:35:37.394Z,20.39
2019-05-03T09:38:06.921Z,19.00
2019-05-03T09:40:36.172Z,18.29
2019-05-03T09:43:05.396Z,17.89
2019-05-03T09:45:35.296Z,17.63
2019-05-03T09:48:05.705Z,17.21
2019-05-03T09:50:35.938Z,16.92
2019-05-03T09:53:09.063Z,16.92
2019-05-03T09:55:40.476Z,16.83
2019-05-03T09:58:09.700Z,16.65
2019-05-03T10:00:38.946Z,16.10
2019-05-03T10:03:08.179Z,15.82
2019-05-03T10:05:37.431Z,15.86
2019-05-03T10:08:06.670Z,15.76
2019-05-03T10:10:54.149Z,15.61
2019-05-03T10:13:26.736Z,15.37
2019-05-03T10:15:54.937Z,15.25
2019-05-03T10:18:25.466Z,15.10
2019-05-03T10:20:56.112Z,14.96
2019-05-03T10:23:38.811Z,14.95
2019-05-03T10:26:08.802Z,14.83
2019-05-03T10:28:38.147Z,14.71
2019-05-03T10:31:08.041Z,14.18
2019-05-03T10:33:45.501Z,13.95
2019-05-03T10:36:15.550Z,13.54
2019-05-03T10:38:45.983Z,13.14
2019-05-03T10:41:16.471Z,13.09
2019-05-03T10:43:45.931Z,13.34
2019-05-03T10:46:15.903Z,13.61
2019-05-03T10:48:47.632Z,14.25
2019-05-03T10:51:16.888Z,15.98
2019-05-03T10:53:49.785Z,17.98
2019-05-03T10:56:31.967Z,20.40
2019-05-03T10:59:03.570Z,23.04
2019-05-03T11:01:45.202Z,24.23
2019-05-03T11:04:14.901Z,25.25
2019-05-03T11:06:45.734Z,25.62
2019-05-03T11:09:15.457Z,23.99
2019-05-03T11:11:45.369Z,22.76
2019-05-03T11:14:18.639Z,24.20
2019-05-03T11:16:47.978Z,26.10
2019-05-03T11:19:17.239Z,26.70
2019-05-03T11:21:46.479Z,27.84
2019-05-03T11:24:15.694Z,27.91
2019-05-03T11:26:46.805Z,26.60
2019-05-03T11:29:16.090Z,26.26
2019-05-03T11:31:50.768Z,25.32
2019-05-03T11:34:22.619Z,24.58
2019-05-03T11:37:11.386Z,22.86
2019-05-03T11:39:42.692Z,21.42
2019-05-03T11:42:11.927Z,20.04
2019-05-03T11:44:41.155Z,19.39
2019-05-03T11:47:11.083Z,18.64
2019-05-03T11:49:40.540Z,17.96
2019-05-03T11:52:09.827Z,17.36
2019-05-03T11:54:39.058Z,16.37
2019-05-03T11:57:15.774Z,15.95
2019-05-03T11:59:45.353Z,15.72
2019-05-03T12:02:33.783Z,15.38
2019-05-03T12:05:04.992Z,15.26
2019-05-03T12:07:39.321Z,15.02
2019-05-03T12:10:16.324Z,14.98
2019-05-03T12:12:40.555Z,15.10
2019-05-03T12:15:10.223Z,15.04
2019-05-03T12:17:53.861Z,15.09
2019-05-03T12:20:14.691Z,15.17
2019-05-03T12:22:46.482Z,15.82
2019-05-03T12:25:16.669Z,16.73
2019-05-03T12:27:53.967Z,17.52
2019-05-03T12:30:27.476Z,18.39
2019-05-03T12:32:56.870Z,18.85
2019-05-03T12:35:26.099Z,19.82
2019-05-03T12:37:55.761Z,19.82
2019-05-03T12:40:25.545Z,20.34
2019-05-03T12:42:55.410Z,20.31
2019-05-03T12:45:25.449Z,20.74
2019-05-03T12:47:56.063Z,20.84
2019-05-03T12:50:25.492Z,19.90
2019-05-03T12:52:55.439Z,19.61
2019-05-03T12:55:25.143Z,19.74
2019-05-03T12:57:55.546Z,20.26
2019-05-03T13:00:39.713Z,20.02
2019-05-03T13:03:12.774Z,19.69
2019-05-03T13:05:42.278Z,19.85
2019-05-03T13:08:30.597Z,19.44
2019-05-03T13:11:00.430Z,19.14
2019-05-03T13:13:29.718Z,19.33
2019-05-03T13:15:58.981Z,20.13
2019-05-03T13:18:28.206Z,20.01
2019-05-03T13:20:57.842Z,20.29
2019-05-03T13:23:27.088Z,19.88
2019-05-03T13:25:57.605Z,19.52
2019-05-03T13:28:28.181Z,19.61
2019-05-03T13:30:57.411Z,19.62
2019-05-03T13:33:26.675Z,20.17
2019-05-03T13:35:55.910Z,19.31
2019-05-03T13:38:25.135Z,17.70
2019-05-03T13:40:56.175Z,17.37
2019-05-03T13:43:25.400Z,17.74
2019-05-03T13:45:55.641Z,17.71
2019-05-03T13:48:26.319Z,18.20
2019-05-03T13:50:56.063Z,18.39
2019-05-03T13:53:25.559Z,18.33
2019-05-03T13:55:55.317Z,18.31
2019-05-03T13:58:26.389Z,18.43
2019-05-03T14:00:56.168Z,18.07
2019-05-03T14:03:26.472Z,17.75
2019-05-03T14:05:56.904Z,17.74
2019-05-03T14:08:26.143Z,17.36
2019-05-03T14:10:58.011Z,17.38
2019-05-03T14:13:27.541Z,17.21
2019-05-03T14:15:56.794Z,17.38
2019-05-03T14:18:26.013Z,17.77
2019-05-03T14:21:15.084Z,17.87
2019-05-03T14:24:02.089Z,17.79
2019-05-03T14:26:31.553Z,17.42
2019-05-03T14:29:00.826Z,17.35
2019-05-03T14:31:30.373Z,17.24
2019-05-03T14:33:59.585Z,17.22
2019-05-03T14:36:29.293Z,17.56
2019-05-03T14:38:59.016Z,17.77
2019-05-03T14:41:28.609Z,18.12
2019-05-03T14:44:00.067Z,19.16
2019-05-03T14:46:33.169Z,19.37
2019-05-03T14:49:00.280Z,18.40
2019-05-03T14:51:29.539Z,17.73
2019-05-03T14:54:00.382Z,17.13
2019-05-03T14:56:35.926Z,16.86
2019-05-03T14:59:27.009Z,16.47
2019-05-03T15:02:15.609Z,16.40
2019-05-03T15:04:44.874Z,16.34
2019-05-03T15:07:15.327Z,16.27
2019-05-03T15:09:45.852Z,16.34
2019-05-03T15:12:16.517Z,16.33
2019-05-03T15:14:45.740Z,16.35
2019-05-03T15:17:15.003Z,16.60
2019-05-03T15:19:45.381Z,16.61
2019-05-03T15:22:14.788Z,16.23
2019-05-03T15:24:45.192Z,16.47
2019-05-03T15:27:14.790Z,17.78
2019-05-03T15:29:44.806Z,18.81
2019-05-03T15:32:15.506Z,18.52
2019-05-03T15:34:45.058Z,17.87
2019-05-03T15:37:15.162Z,17.45
2019-05-03T15:39:45.219Z,16.81
2019-05-03T15:42:17.916Z,16.56
2019-05-03T15:45:25.962Z,16.31
2019-05-03T15:48:16.520Z,16.27
2019-05-03T15:50:48.149Z,16.24
2019-05-03T15:53:17.454Z,15.99
2019-05-03T15:55:46.758Z,15.87
2019-05-03T15:58:17.747Z,15.97
2019-05-03T16:00:48.508Z,16.03
2019-05-03T16:03:17.724Z,15.98
2019-05-03T16:05:46.929Z,15.85
2019-05-03T16:08:19.552Z,15.61
2019-05-03T16:10:48.768Z,15.69
2019-05-03T16:13:19.595Z,15.69
2019-05-03T16:15:48.815Z,15.46
2019-05-03T16:18:20.321Z,15.33
2019-05-03T16:20:49.835Z,15.32
2019-05-03T16:23:19.059Z,15.17
2019-05-03T16:25:48.253Z,15.23
2019-05-03T16:28:33.127Z,15.33
2019-05-03T16:31:08.569Z,15.29
2019-05-03T16:33:38.629Z,15.28
2019-05-03T16:36:07.847Z,15.27
2019-05-03T16:38:37.087Z,15.13
2019-05-03T16:41:07.226Z,14.97
2019-05-03T16:43:39.954Z,15.06
2019-05-03T16:46:09.197Z,15.07
2019-05-03T16:48:40.346Z,15.03
2019-05-03T16:51:09.852Z,14.84
2019-05-03T16:53:39.082Z,14.89
2019-05-03T16:56:08.301Z,14.77
2019-05-03T16:58:37.938Z,14.73
2019-05-03T17:01:07.193Z,14.79
2019-05-03T17:03:45.661Z,14.71
2019-05-03T17:06:26.542Z,14.70
2019-05-03T17:09:14.542Z,14.69
2019-05-03T17:11:45.744Z,14.66
2019-05-03T17:14:17.547Z,14.69
2019-05-03T17:16:47.074Z,14.67
2019-05-03T17:19:19.778Z,14.52
2019-05-03T17:21:49.003Z,14.48
2019-05-03T17:24:18.236Z,14.42
2019-05-03T17:26:47.447Z,14.38
2019-05-03T17:29:16.681Z,14.24
2019-05-03T17:31:47.481Z,14.26
2019-05-03T17:34:16.724Z,14.30
2019-05-03T17:36:46.028Z,14.21
2019-05-03T17:39:17.482Z,14.29
2019-05-03T17:42:01.203Z,14.27
2019-05-03T17:44:36.352Z,14.10
2019-05-03T17:47:05.614Z,13.96
2019-05-03T17:49:36.856Z,13.95
2019-05-03T17:52:25.412Z,13.85
2019-05-03T17:55:12.445Z,13.72
2019-05-03T17:57:50.462Z,13.70
2019-05-03T18:00:41.536Z,13.67
2019-05-03T18:03:11.008Z,13.63
2019-05-03T18:05:48.910Z,13.57
2019-05-03T18:08:36.059Z,13.64
2019-05-03T18:11:10.487Z,13.54
2019-05-03T18:13:39.739Z,13.52
2019-05-03T18:16:09.011Z,13.45
2019-05-03T18:18:38.266Z,13.47
2019-05-03T18:21:07.748Z,13.46
2019-05-03T18:23:36.993Z,13.41
2019-05-03T18:26:06.205Z,13.35
2019-05-03T18:28:35.758Z,13.34
2019-05-03T18:31:08.560Z,13.35
2019-05-03T18:33:36.646Z,13.32
2019-05-03T18:36:05.981Z,13.25
2019-05-03T18:38:41.288Z,13.24
2019-05-03T18:41:13.021Z,13.24
2019-05-03T18:44:01.228Z,13.25
2019-05-03T18:46:34.338Z,13.22
2019-05-03T18:49:06.231Z,13.16
2019-05-03T18:51:36.165Z,13.15
2019-05-03T18:54:07.326Z,13.04
2019-05-03T18:56:36.447Z,13.06
2019-05-03T18:59:05.686Z,13.00
2019-05-03T19:01:34.969Z,12.95
2019-05-03T19:04:14.694Z,12.88
2019-05-03T19:06:45.177Z,12.87
2019-05-03T19:09:36.428Z,12.89
2019-05-03T19:12:27.809Z,12.84
2019-05-03T19:14:57.452Z,12.82
2019-05-03T19:17:50.529Z,12.80
2019-05-03T19:20:19.817Z,12.79
2019-05-03T19:22:49.051Z,12.75
2019-05-03T19:25:20.858Z,12.82
2019-05-03T19:27:50.139Z,12.81
2019-05-03T19:30:19.694Z,12.91
2019-05-03T19:32:49.280Z,12.95
2019-05-03T19:35:18.517Z,12.90
2019-05-03T19:37:47.734Z,12.88
2019-05-03T19:40:18.394Z,12.89
2019-05-03T19:42:47.610Z,12.82
2019-05-03T19:45:18.855Z,12.70
2019-05-03T19:47:48.065Z,12.60
2019-05-03T19:50:17.330Z,12.63
2019-05-03T19:53:09.377Z,12.48
2019-05-03T19:55:38.620Z,12.45
2019-05-03T19:58:07.835Z,12.34
2019-05-03T20:00:47.918Z,12.23
2019-05-03T20:03:20.966Z,12.09
2019-05-03T20:05:56.888Z,12.01
2019-05-03T20:08:35.070Z,11.84
2019-05-03T20:11:17.370Z,11.60
2019-05-03T20:13:48.155Z,11.47
2019-05-03T20:16:17.400Z,11.37
2019-05-03T20:18:46.639Z,11.25
2019-05-03T20:21:15.884Z,11.31
2019-05-03T20:23:47.510Z,11.39
2019-05-03T20:26:16.752Z,11.41
2019-05-03T20:28:45.998Z,11.32
2019-05-03T20:31:15.268Z,11.23
2019-05-03T20:33:45.778Z,11.23
2019-05-03T20:36:17.533Z,11.25
2019-05-03T20:38:46.760Z,11.20
2019-05-03T20:41:17.467Z,11.09
2019-05-03T20:44:05.289Z,11.05
2019-05-03T20:47:09.998Z,11.04
2019-05-03T20:49:39.222Z,10.96
2019-05-03T20:52:08.460Z,10.96
2019-05-03T20:54:37.710Z,10.89
2019-05-03T20:57:07.250Z,10.79
2019-05-03T20:59:45.895Z,10.74
2019-05-03T21:02:07.802Z,10.71
2019-05-03T21:04:37.019Z,10.62
2019-05-03T21:07:06.341Z,10.57
2019-05-03T21:09:36.293Z,10.61
2019-05-03T21:12:05.561Z,10.66
2019-05-03T21:14:36.778Z,10.69
2019-05-03T21:17:28.259Z,10.71
2019-05-03T21:20:08.549Z,10.64
2019-05-03T21:22:44.457Z,10.65
2019-05-03T21:25:24.921Z,10.72
2019-05-03T21:27:55.516Z,10.73
2019-05-03T21:30:25.349Z,10.66
2019-05-03T21:32:56.991Z,10.54
2019-05-03T21:35:38.689Z,10.57
2019-05-03T21:37:57.163Z,10.64
2019-05-03T21:40:26.379Z,10.67
2019-05-03T21:42:55.623Z,10.70
2019-05-03T21:45:29.851Z,10.69
2019-05-03T21:48:21.175Z,10.73
2019-05-03T21:50:52.132Z,10.73
2019-05-03T21:53:22.316Z,10.70
2019-05-03T21:55:51.541Z,10.50
2019-05-03T21:58:24.996Z,10.41
2019-05-03T22:01:05.090Z,10.48
2019-05-03T22:03:35.487Z,10.56
2019-05-03T22:06:05.340Z,10.58
2019-05-03T22:08:35.074Z,10.60
2019-05-03T22:11:05.352Z,10.63
2019-05-03T22:13:35.047Z,10.60
2019-05-03T22:16:18.055Z,10.53
2019-05-03T22:18:48.532Z,10.43
2019-05-03T22:21:44.816Z,10.28
2019-05-03T22:24:32.711Z,10.27
2019-05-03T22:27:06.970Z,10.18
2019-05-03T22:29:35.927Z,10.07
2019-05-03T22:32:05.505Z,9.99
2019-05-03T22:34:35.005Z,9.81
2019-05-03T22:37:04.528Z,9.53
2019-05-03T22:39:33.943Z,9.32
2019-05-03T22:42:04.504Z,9.27
2019-05-03T22:44:35.607Z,9.27
2019-05-03T22:47:05.649Z,9.30
2019-05-03T22:49:37.319Z,9.34
2019-05-03T22:52:06.187Z,9.37
2019-05-03T22:54:35.665Z,9.45
2019-05-03T22:57:05.851Z,9.55
2019-05-03T22:59:35.201Z,9.64
2019-05-03T23:02:04.419Z,9.77
2019-05-03T23:04:35.447Z,9.70
2019-05-03T23:07:05.559Z,9.81
2019-05-03T23:09:35.316Z,9.91
2019-05-03T23:12:05.525Z,9.99
2019-05-03T23:14:34.927Z,9.95
2019-05-03T23:17:04.197Z,9.82
2019-05-03T23:19:35.320Z,9.81
2019-05-03T23:22:15.400Z,9.76
2019-05-03T23:24:44.635Z,9.72
2019-05-03T23:27:14.448Z,9.61
2019-05-03T23:29:45.411Z,9.49
2019-05-03T23:32:17.312Z,9.44
2019-05-03T23:34:46.581Z,9.28
2019-05-03T23:37:15.798Z,9.26
2019-05-03T23:39:45.033Z,9.19
2019-05-03T23:42:15.483Z,9.10
2019-05-03T23:44:45.689Z,9.03
2019-05-03T23:47:25.632Z,8.97
2019-05-03T23:49:55.389Z,8.84
2019-05-03T23:52:37.505Z,8.79
2019-05-03T23:55:34.456Z,8.76
2019-05-03T23:58:04.883Z,8.73
